首页
METAR-TAF:

METAR-TAF

机场 :

烏爾米耶機場

乌尔米耶, 伊朗

纬度: 37-32N, 经度: 045-05E, 海拔: 1297米

当前天气观测

该预报发布于24分钟前的07:00 UTC
风速4节,风向西转西北
温度 8°C
湿度 49%
气压 1014 hPa
能見度: 8000
少量云层高于3500英尺
多云层高于16000英尺

METAR: OITR 290700Z 30004KT 8000 FEW035 BKN160 08/M02 Q1014

时间: 10:54 (07:24 UTC)

预报

该预报发布于1小时和54分钟前的05:30 UTC
预报有效从29日的 06点(UTC)到 01日的 12点(UTC)
风速8节,风向
能見度: 7000
少量云层高于3000英尺
多云层高于10000英尺
成为
从 29日的 12点(UTC)到 29日的 14点(UTC)
少量云层高于3000英尺, 积雨云.
散云层高于4000英尺
多云层高于10000英尺
短暂存在
从 29日的 14点(UTC)到 29日的 21点(UTC)
风速10节,风向西北
能見度: 5000
短暂存在
从 29日的 21点(UTC)到 01日的 04点(UTC)
能見度: 5000
轻雾
成为
从 01日的 04点(UTC)到 01日的 06点(UTC)
能見度: 5000
少量云层高于3000英尺, 积雨云.
散云层高于3500英尺
多云层高于8000英尺
短暂存在
从 01日的 06点(UTC)到 01日的 12点(UTC)
风速12节,风向西转西南,有时为24节阵风
能見度: 3000
散云层高于2500英尺, 积雨云.
散云层高于3000英尺
阴天层高于8000英尺
阵雨

TAF: OITR 290530Z 2906/0112 09008KT 7000 FEW030 BKN100 BECMG 2912/2914 FEW030CB SCT040 BKN100 TEMPO 2914/2921 32010KT 5000 RA TEMPO 2921/0104 5000 BR BECMG 0104/0106 5000 RA FEW030CB SCT035 BKN080 TEMPO 0106/0112 24012G24KT 3000 SHRA SCT025CB SCT030 OVC080

超过4000个机场的气象观测和天气预报(METAR&TAF报告)。

可查询的气象台以黄色和红色小点在地图上表示。

将鼠标移到小点上方,可查看气象台名称。

然后点击查看天气观测和预报。

如需切换地图:点击带黑十字的绿色按钮放大地图;点击带横线的绿色按钮缩小地图;或者点击绿色箭头查看邻近地区的地图。


METAR-TAF: